createdAt,value
2018-11-06T00:01:12.599Z,132.63
2018-11-06T00:03:48.762Z,114.00
2018-11-06T00:06:16.929Z,208.35
2018-11-06T00:08:45.089Z,197.30
2018-11-06T00:11:13.263Z,126.78
2018-11-06T00:13:41.404Z,120.92
2018-11-06T00:16:10.158Z,47.40
2018-11-06T00:18:38.347Z,50.50
2018-11-06T00:21:06.558Z,94.52
2018-11-06T00:23:34.723Z,97.55
2018-11-06T00:26:02.898Z,73.62
2018-11-06T00:28:31.053Z,72.35
2018-11-06T00:30:59.215Z,50.83
2018-11-06T00:33:27.391Z,62.58
2018-11-06T00:35:55.533Z,61.83
2018-11-06T00:38:23.689Z,83.82
2018-11-06T00:40:51.865Z,57.13
2018-11-06T00:43:20.046Z,65.80
2018-11-06T00:45:48.195Z,68.00
2018-11-06T00:48:16.350Z,66.92
2018-11-06T00:50:44.502Z,65.78
2018-11-06T00:53:12.650Z,44.63
2018-11-06T00:55:40.826Z,73.25
2018-11-06T00:58:08.990Z,59.35
2018-11-06T01:00:37.144Z,60.10
2018-11-06T01:03:05.302Z,38.10
2018-11-06T01:05:33.457Z,53.52
2018-11-06T01:08:01.615Z,50.28
2018-11-06T01:10:29.762Z,106.97
2018-11-06T01:12:57.945Z,45.43
2018-11-06T01:15:26.098Z,49.95
2018-11-06T01:17:54.258Z,81.12
2018-11-06T01:20:22.397Z,100.33
2018-11-06T01:22:50.553Z,94.07
2018-11-06T01:25:18.713Z,189.87
2018-11-06T01:27:46.861Z,230.72
2018-11-06T01:30:18.941Z,166.55
2018-11-06T01:32:47.515Z,105.43
2018-11-06T01:35:16.060Z,178.62
2018-11-06T01:37:44.773Z,134.35
2018-11-06T01:40:14.018Z,200.85
2018-11-06T01:42:42.988Z,161.30
2018-11-06T01:45:12.566Z,99.90
2018-11-06T01:47:41.171Z,146.45
2018-11-06T01:50:11.530Z,98.30
2018-11-06T01:52:39.801Z,157.75
2018-11-06T01:55:08.854Z,96.00
2018-11-06T01:57:37.025Z,171.05
2018-11-06T02:00:06.694Z,130.97
2018-11-06T02:02:34.862Z,143.30
2018-11-06T02:05:03.025Z,121.85
2018-11-06T02:07:31.186Z,54.70
2018-11-06T02:09:59.349Z,132.47
2018-11-06T02:12:27.506Z,69.42
2018-11-06T02:14:55.666Z,116.15
2018-11-06T02:17:23.824Z,93.62
2018-11-06T02:19:52.066Z,124.87
2018-11-06T02:22:20.223Z,149.90
2018-11-06T02:24:48.395Z,86.70
2018-11-06T02:27:16.553Z,32.40
2018-11-06T02:29:44.705Z,56.98
2018-11-06T02:32:12.874Z,38.50
2018-11-06T02:34:41.028Z,62.50
2018-11-06T02:37:09.178Z,37.25
2018-11-06T02:39:37.337Z,34.30
2018-11-06T02:42:05.597Z,51.08
2018-11-06T02:44:33.752Z,37.25
2018-11-06T02:47:01.893Z,36.45
2018-11-06T02:49:30.046Z,49.53
2018-11-06T02:51:58.194Z,43.33
2018-11-06T02:54:26.341Z,56.68
2018-11-06T02:56:54.485Z,83.70
2018-11-06T02:59:22.646Z,55.73
2018-11-06T03:01:50.786Z,64.87
2018-11-06T03:04:18.936Z,76.22
2018-11-06T03:06:47.074Z,95.72
2018-11-06T03:09:15.230Z,85.67
2018-11-06T03:11:43.390Z,69.17
2018-11-06T03:14:11.545Z,54.98
2018-11-06T03:16:39.714Z,51.85
2018-11-06T03:19:07.845Z,53.17
2018-11-06T03:21:35.998Z,49.15
2018-11-06T03:24:04.506Z,44.48
2018-11-06T03:26:32.670Z,39.58
2018-11-06T03:29:00.822Z,37.30
2018-11-06T03:31:28.965Z,31.80
2018-11-06T03:33:57.131Z,42.05
2018-11-06T03:36:25.274Z,55.90
2018-11-06T03:38:53.414Z,47.53
2018-11-06T03:41:21.590Z,66.47
2018-11-06T03:43:49.737Z,87.50
2018-11-06T03:46:17.870Z,71.65
2018-11-06T03:48:46.006Z,83.80
2018-11-06T03:51:14.138Z,71.30
2018-11-06T03:53:42.286Z,73.17
2018-11-06T03:56:10.530Z,199.87
2018-11-06T03:58:38.703Z,145.92
2018-11-06T04:01:07.252Z,230.12
2018-11-06T04:03:35.403Z,136.03
2018-11-06T04:06:03.548Z,120.15
2018-11-06T04:08:31.698Z,119.45
2018-11-06T04:10:59.846Z,243.02
2018-11-06T04:13:28.013Z,152.57
2018-11-06T04:15:56.146Z,137.35
2018-11-06T04:18:24.309Z,188.57
2018-11-06T04:20:52.449Z,188.10
2018-11-06T04:23:20.614Z,210.15
2018-11-06T04:25:48.754Z,220.57
2018-11-06T04:28:16.902Z,128.70
2018-11-06T04:30:45.047Z,148.62
2018-11-06T04:33:13.210Z,116.40
2018-11-06T04:35:41.358Z,53.83
2018-11-06T04:38:09.510Z,66.62
2018-11-06T04:40:37.653Z,70.25
2018-11-06T04:43:06.338Z,91.53
2018-11-06T04:45:34.479Z,63.50
2018-11-06T04:48:02.662Z,61.15
2018-11-06T04:50:30.810Z,59.70
2018-11-06T04:52:58.954Z,71.75
2018-11-06T04:55:27.569Z,52.23
2018-11-06T04:57:55.717Z,52.33
2018-11-06T05:00:23.857Z,47.13
2018-11-06T05:02:52.004Z,35.15
2018-11-06T05:05:20.253Z,40.28
2018-11-06T05:07:48.417Z,44.55
2018-11-06T05:10:16.595Z,46.35
2018-11-06T05:12:44.801Z,48.35
2018-11-06T05:15:14.192Z,58.50
2018-11-06T05:17:42.347Z,140.05
2018-11-06T05:20:13.010Z,50.60
2018-11-06T05:22:41.254Z,38.92
2018-11-06T05:25:09.766Z,38.73
2018-11-06T05:27:38.199Z,158.05
2018-11-06T05:30:06.782Z,68.37
2018-11-06T05:32:34.935Z,68.80
2018-11-06T05:35:03.146Z,32.93
2018-11-06T05:37:31.302Z,25.92
2018-11-06T05:40:10.901Z,23.92
2018-11-06T05:42:39.050Z,78.90
2018-11-06T05:45:07.182Z,93.03
2018-11-06T05:47:35.342Z,112.72
2018-11-06T05:50:03.515Z,126.15
2018-11-06T05:52:31.676Z,121.90
2018-11-06T05:54:59.826Z,92.78
2018-11-06T05:57:27.975Z,81.30
2018-11-06T05:59:56.134Z,60.90
2018-11-06T06:02:24.282Z,69.10
2018-11-06T06:04:52.439Z,52.48
2018-11-06T06:07:20.613Z,78.90
2018-11-06T06:09:48.762Z,60.35
2018-11-06T06:12:16.954Z,41.55
2018-11-06T06:14:45.142Z,34.95
2018-11-06T06:17:13.341Z,49.40
2018-11-06T06:19:41.430Z,54.30
2018-11-06T06:22:09.591Z,38.80
2018-11-06T06:24:37.738Z,31.17
2018-11-06T06:27:05.878Z,28.23
2018-11-06T06:29:34.034Z,31.07
2018-11-06T06:32:02.174Z,102.07
2018-11-06T06:34:30.370Z,66.70
2018-11-06T06:36:58.463Z,115.67
2018-11-06T06:39:26.607Z,34.78
2018-11-06T06:41:54.765Z,30.55
2018-11-06T06:44:22.919Z,24.77
2018-11-06T06:46:51.083Z,25.43
2018-11-06T06:49:19.246Z,54.53
2018-11-06T06:51:47.390Z,21.80
2018-11-06T06:54:15.607Z,20.60
2018-11-06T06:56:43.684Z,21.50
2018-11-06T06:59:13.047Z,19.65
2018-11-06T07:01:41.199Z,21.05
2018-11-06T07:04:09.342Z,22.62
2018-11-06T07:06:37.527Z,23.07
2018-11-06T07:09:07.866Z,21.02
2018-11-06T07:11:36.045Z,35.08
2018-11-06T07:14:04.210Z,24.43
2018-11-06T07:16:32.377Z,24.67
2018-11-06T07:19:00.641Z,23.27
2018-11-06T07:21:28.779Z,23.30
2018-11-06T07:23:56.972Z,24.55
2018-11-06T07:26:25.127Z,27.73
2018-11-06T07:28:53.385Z,25.23
2018-11-06T07:31:21.502Z,33.02
2018-11-06T07:33:49.762Z,29.00
2018-11-06T07:36:17.950Z,24.85
2018-11-06T07:38:46.121Z,27.07
2018-11-06T07:41:14.443Z,24.70
2018-11-06T07:43:42.551Z,23.87
2018-11-06T07:46:10.799Z,21.65
2018-11-06T07:48:38.949Z,22.83
2018-11-06T07:51:07.118Z,17.80
2018-11-06T07:53:35.285Z,18.10
2018-11-06T07:56:03.487Z,26.40
2018-11-06T07:58:31.664Z,36.53
2018-11-06T08:00:59.878Z,19.82
2018-11-06T08:03:28.067Z,20.63
2018-11-06T08:05:56.239Z,22.73
2018-11-06T08:08:24.412Z,29.37
2018-11-06T08:10:52.589Z,20.40
2018-11-06T08:13:20.797Z,27.37
2018-11-06T08:15:48.982Z,18.43
2018-11-06T08:18:17.153Z,21.03
2018-11-06T08:20:45.406Z,16.23
2018-11-06T08:23:13.491Z,16.10
2018-11-06T08:25:41.645Z,16.70
2018-11-06T08:28:09.801Z,19.20
2018-11-06T08:30:38.636Z,16.23
2018-11-06T08:33:06.711Z,17.50
2018-11-06T08:35:34.938Z,17.87
2018-11-06T08:38:03.110Z,14.27
2018-11-06T08:40:31.282Z,16.50
2018-11-06T08:42:59.426Z,20.53
2018-11-06T08:45:27.602Z,13.90
2018-11-06T08:47:55.772Z,18.23
2018-11-06T08:50:23.958Z,14.77
2018-11-06T08:52:52.102Z,14.20
2018-11-06T08:55:20.723Z,16.40
2018-11-06T08:57:49.268Z,14.60
2018-11-06T09:00:18.469Z,17.87
2018-11-06T09:02:51.556Z,15.80
2018-11-06T09:05:23.259Z,19.70
2018-11-06T09:07:52.585Z,12.93
2018-11-06T09:12:56.329Z,20.83
2018-11-06T09:15:25.619Z,16.20
2018-11-06T09:17:56.616Z,33.40
2018-11-06T09:20:26.711Z,38.80
2018-11-06T09:22:56.787Z,16.70
2018-11-06T09:25:26.453Z,18.47
2018-11-06T09:27:55.208Z,16.00
2018-11-06T09:30:24.179Z,23.57
2018-11-06T09:32:52.413Z,24.63
2018-11-06T09:35:23.402Z,20.00
2018-11-06T09:37:53.378Z,22.43
2018-11-06T09:40:23.616Z,24.23
2018-11-06T09:42:55.137Z,20.97
2018-11-06T09:45:26.120Z,18.47
2018-11-06T09:47:54.834Z,18.43
2018-11-06T09:50:26.173Z,21.13
2018-11-06T09:52:54.450Z,13.67
2018-11-06T09:55:22.838Z,18.37
2018-11-06T09:57:51.071Z,19.53
2018-11-06T10:00:20.188Z,14.03
2018-11-06T10:02:48.327Z,15.20
2018-11-06T10:05:17.175Z,17.40
2018-11-06T10:07:45.442Z,20.03
2018-11-06T10:10:15.002Z,20.30
2018-11-06T10:12:43.326Z,20.77
2018-11-06T10:15:13.322Z,15.17
2018-11-06T10:17:42.646Z,19.77
2018-11-06T10:20:11.852Z,16.20
2018-11-06T10:22:39.997Z,16.23
2018-11-06T10:25:08.396Z,13.90
2018-11-06T10:27:37.194Z,18.00
2018-11-06T10:30:08.350Z,19.57
2018-11-06T10:32:36.498Z,18.20
2018-11-06T10:35:05.046Z,18.53
2018-11-06T10:37:33.194Z,22.00
2018-11-06T10:40:01.369Z,15.63
2018-11-06T10:42:29.598Z,20.23
2018-11-06T10:44:57.765Z,19.83
2018-11-06T10:47:25.905Z,21.53
2018-11-06T10:49:54.068Z,19.80
2018-11-06T10:52:22.238Z,20.27
2018-11-06T10:54:50.426Z,22.43
2018-11-06T10:57:18.567Z,19.43
2018-11-06T10:59:47.199Z,19.40
2018-11-06T11:02:16.317Z,17.63
2018-11-06T11:04:44.462Z,20.20
2018-11-06T11:07:12.626Z,19.17
2018-11-06T11:09:40.756Z,16.53
2018-11-06T11:12:08.913Z,15.53
2018-11-06T11:14:37.051Z,17.47
2018-11-06T11:17:05.558Z,14.70
2018-11-06T11:19:33.697Z,20.03
2018-11-06T11:22:01.847Z,21.03
2018-11-06T11:24:29.994Z,16.90
2018-11-06T11:26:58.145Z,17.13
2018-11-06T11:29:26.298Z,18.93
2018-11-06T11:31:54.474Z,23.83
2018-11-06T11:34:22.622Z,20.83
2018-11-06T11:36:50.764Z,16.90
2018-11-06T11:39:18.920Z,17.30
2018-11-06T11:41:47.079Z,17.87
2018-11-06T11:44:15.218Z,18.53
2018-11-06T11:46:43.383Z,19.90
2018-11-06T11:49:11.522Z,22.70
2018-11-06T11:51:39.675Z,20.00
2018-11-06T11:54:07.825Z,20.27
2018-11-06T11:56:35.983Z,22.07
2018-11-06T11:59:04.131Z,21.20
2018-11-06T12:01:32.299Z,19.20
2018-11-06T12:04:00.521Z,21.90
2018-11-06T12:06:28.674Z,18.20
2018-11-06T12:08:57.225Z,22.57
2018-11-06T12:11:25.445Z,17.13
2018-11-06T12:13:53.969Z,20.10
2018-11-06T12:16:22.299Z,23.17
2018-11-06T12:18:50.481Z,22.20
2018-11-06T12:21:18.642Z,19.30
2018-11-06T12:23:46.872Z,16.93
2018-11-06T12:26:15.058Z,21.90
2018-11-06T12:28:43.238Z,16.40
2018-11-06T12:31:11.379Z,23.23
2018-11-06T12:33:39.543Z,16.13
2018-11-06T12:36:07.703Z,20.63
2018-11-06T12:38:38.283Z,11.70
2018-11-06T12:41:07.262Z,13.60
2018-11-06T12:43:35.777Z,10.23
2018-11-06T12:46:04.261Z,12.07
2018-11-06T12:48:32.414Z,11.40
2018-11-06T12:51:00.568Z,12.90
2018-11-06T12:53:28.714Z,13.00
2018-11-06T12:55:56.891Z,21.30
2018-11-06T12:58:25.083Z,15.13
2018-11-06T13:00:53.289Z,10.93
2018-11-06T13:03:21.519Z,10.80
2018-11-06T13:05:49.819Z,12.20
2018-11-06T13:08:18.102Z,12.30
2018-11-06T13:10:46.322Z,11.50
2018-11-06T13:13:14.569Z,11.37
2018-11-06T13:15:42.830Z,9.67
2018-11-06T13:18:11.022Z,11.53
2018-11-06T13:20:39.358Z,8.67
2018-11-06T13:23:07.549Z,12.30
2018-11-06T13:25:35.821Z,10.77
2018-11-06T13:28:03.981Z,12.03
2018-11-06T13:30:32.317Z,10.50
2018-11-06T13:33:00.555Z,10.90
2018-11-06T13:35:28.736Z,12.33
2018-11-06T13:37:56.937Z,16.87
2018-11-06T13:40:25.114Z,13.77
2018-11-06T13:42:53.566Z,17.10
2018-11-06T13:45:23.171Z,19.70
2018-11-06T13:47:51.204Z,23.23
2018-11-06T13:50:19.397Z,21.30
2018-11-06T13:52:47.574Z,24.47
2018-11-06T13:55:16.582Z,25.27
2018-11-06T13:57:45.478Z,25.57
2018-11-06T14:00:16.707Z,24.70
2018-11-06T14:02:44.901Z,26.97
2018-11-06T14:05:13.358Z,21.33
2018-11-06T14:07:41.525Z,25.30
2018-11-06T14:10:09.822Z,19.93
2018-11-06T14:12:38.293Z,22.13
2018-11-06T14:15:06.542Z,22.93
2018-11-06T14:17:34.722Z,21.87
2018-11-06T14:20:02.893Z,23.83
2018-11-06T14:22:31.094Z,26.37
2018-11-06T14:24:59.326Z,25.47
2018-11-06T14:27:27.557Z,24.80
2018-11-06T14:29:55.707Z,29.03
2018-11-06T14:32:24.538Z,21.33
2018-11-06T14:34:52.694Z,26.20
2018-11-06T14:37:20.843Z,27.97
2018-11-06T14:39:49.022Z,24.10
2018-11-06T14:42:17.259Z,22.20
2018-11-06T14:44:45.477Z,20.23
2018-11-06T14:47:13.638Z,26.70
2018-11-06T14:49:41.988Z,22.90
2018-11-06T14:52:10.195Z,23.20
2018-11-06T14:54:38.680Z,25.47
2018-11-06T14:57:07.134Z,25.13
2018-11-06T14:59:35.294Z,20.10
2018-11-06T15:02:03.454Z,25.40
2018-11-06T15:04:31.604Z,32.30
2018-11-06T15:06:59.846Z,25.63
2018-11-06T15:09:28.197Z,20.20
2018-11-06T15:11:56.397Z,30.73
2018-11-06T15:14:24.623Z,25.07
2018-11-06T15:16:52.805Z,22.80
2018-11-06T15:19:20.967Z,25.70
2018-11-06T15:21:49.107Z,25.57
2018-11-06T15:24:17.274Z,26.10
2018-11-06T15:26:45.446Z,26.60
2018-11-06T15:29:13.633Z,27.40
2018-11-06T15:31:41.806Z,26.60
2018-11-06T15:34:09.983Z,23.67
2018-11-06T15:36:38.183Z,21.40
2018-11-06T15:39:08.242Z,24.63
2018-11-06T15:41:36.791Z,25.83
2018-11-06T15:44:05.391Z,22.03
2018-11-06T15:46:33.543Z,21.13
2018-11-06T15:49:01.790Z,23.40
2018-11-06T15:51:29.870Z,30.40
2018-11-06T15:53:58.042Z,44.77
2018-11-06T15:56:26.198Z,54.83
2018-11-06T15:58:54.779Z,57.20
2018-11-06T16:01:23.771Z,38.90
2018-11-06T16:03:51.954Z,29.80
2018-11-06T16:06:20.209Z,26.93
2018-11-06T16:08:48.445Z,29.97
2018-11-06T16:11:16.612Z,13.20
2018-11-06T16:13:45.098Z,16.43
2018-11-06T16:16:13.331Z,17.50
2018-11-06T16:18:41.533Z,14.33
2018-11-06T16:21:09.680Z,14.87
2018-11-06T16:23:37.884Z,14.47
2018-11-06T16:26:06.054Z,11.97
2018-11-06T16:28:34.229Z,14.30
2018-11-06T16:31:02.455Z,19.13
2018-11-06T16:33:30.633Z,22.43
2018-11-06T16:35:58.802Z,23.43
2018-11-06T16:38:27.035Z,33.90
2018-11-06T16:40:55.222Z,19.60
2018-11-06T16:43:23.434Z,81.17
2018-11-06T16:45:51.605Z,167.30
2018-11-06T16:48:19.880Z,122.07
2018-11-06T16:50:49.154Z,188.83
2018-11-06T16:53:17.539Z,27.30
2018-11-06T16:55:45.734Z,69.20
2018-11-06T16:58:13.926Z,25.00
2018-11-06T17:00:42.293Z,21.87
2018-11-06T17:03:10.318Z,14.40
2018-11-06T17:05:38.499Z,12.67
2018-11-06T17:08:06.885Z,12.80
2018-11-06T17:10:35.073Z,11.10
2018-11-06T17:13:03.303Z,13.33
2018-11-06T17:15:31.474Z,17.97
2018-11-06T17:17:59.654Z,19.70
2018-11-06T17:20:27.861Z,29.47
2018-11-06T17:22:56.099Z,21.00
2018-11-06T17:25:24.392Z,18.97
2018-11-06T17:27:52.572Z,17.10
2018-11-06T17:30:20.826Z,16.63
2018-11-06T17:32:49.022Z,14.30
2018-11-06T17:35:18.476Z,17.80
2018-11-06T17:37:47.389Z,19.13
2018-11-06T17:40:16.978Z,23.30
2018-11-06T17:42:45.273Z,26.47
2018-11-06T17:45:15.657Z,20.27
2018-11-06T17:47:43.906Z,24.90
2018-11-06T17:50:14.265Z,18.47
2018-11-06T17:52:42.410Z,20.20
2018-11-06T17:55:12.783Z,24.03
2018-11-06T17:57:41.139Z,23.13
2018-11-06T18:00:15.973Z,20.97
2018-11-06T18:02:44.630Z,19.57
2018-11-06T18:05:13.850Z,17.10
2018-11-06T18:07:42.706Z,15.60
2018-11-06T18:10:12.784Z,14.13
2018-11-06T18:12:40.938Z,13.90
2018-11-06T18:15:19.531Z,14.40
2018-11-06T18:17:55.672Z,14.47
2018-11-06T18:20:26.730Z,17.67
2018-11-06T18:22:55.207Z,15.57
2018-11-06T18:25:23.889Z,12.17
2018-11-06T18:27:52.031Z,14.57
2018-11-06T18:30:20.283Z,13.57
2018-11-06T18:32:49.592Z,15.30
2018-11-06T18:35:19.727Z,14.27
2018-11-06T18:37:47.862Z,13.47
2018-11-06T18:40:17.883Z,13.23
2018-11-06T18:42:46.822Z,17.50
2018-11-06T18:45:15.410Z,14.23
2018-11-06T18:47:43.656Z,15.57
2018-11-06T18:50:13.131Z,14.37
2018-11-06T18:52:42.430Z,12.83
2018-11-06T18:55:10.586Z,13.17
2018-11-06T18:57:38.759Z,17.10
2018-11-06T19:00:11.210Z,14.07
2018-11-06T19:02:39.419Z,13.57
2018-11-06T19:05:07.642Z,15.17
2018-11-06T19:07:36.188Z,12.40
2018-11-06T19:10:04.438Z,14.47
2018-11-06T19:12:32.620Z,14.87
2018-11-06T19:15:00.799Z,14.03
2018-11-06T19:17:30.103Z,13.60
2018-11-06T19:19:58.304Z,13.37
2018-11-06T19:22:26.506Z,15.30
2018-11-06T19:24:54.770Z,15.63
2018-11-06T19:27:22.917Z,17.03
2018-11-06T19:29:51.088Z,20.10
2018-11-06T19:32:19.255Z,19.23
2018-11-06T19:34:47.434Z,17.77
2018-11-06T19:37:15.612Z,15.20
2018-11-06T19:39:43.866Z,16.93
2018-11-06T19:42:12.215Z,19.33
2018-11-06T19:44:40.468Z,16.57
2018-11-06T19:47:08.723Z,14.83
2018-11-06T19:49:36.938Z,22.93
2018-11-06T19:52:05.251Z,17.73
2018-11-06T19:54:33.561Z,15.87
2018-11-06T19:57:01.667Z,25.03
2018-11-06T19:59:29.913Z,27.10
2018-11-06T20:01:58.022Z,21.67
2018-11-06T20:04:26.204Z,23.27
2018-11-06T20:06:54.358Z,23.37
2018-11-06T20:09:22.532Z,25.97
2018-11-06T20:11:50.811Z,31.93
2018-11-06T20:14:18.839Z,25.50
2018-11-06T20:16:48.078Z,28.63
2018-11-06T20:19:16.228Z,39.73
2018-11-06T20:21:44.710Z,30.93
2018-11-06T20:24:12.967Z,37.00
2018-11-06T20:26:41.090Z,29.07
2018-11-06T20:29:09.270Z,31.10
2018-11-06T20:31:37.938Z,34.93
2018-11-06T20:34:06.285Z,30.97
2018-11-06T20:36:34.507Z,29.07
2018-11-06T20:39:02.721Z,29.00
2018-11-06T20:41:31.075Z,27.87
2018-11-06T20:43:59.263Z,29.00
2018-11-06T20:46:27.823Z,28.50
2018-11-06T20:48:55.903Z,29.30
2018-11-06T20:51:29.039Z,29.50
2018-11-06T20:53:57.278Z,30.47
2018-11-06T20:56:25.459Z,29.30
2018-11-06T20:58:53.736Z,33.07
2018-11-06T21:01:22.276Z,29.83
2018-11-06T21:03:50.370Z,24.13
2018-11-06T21:06:18.556Z,35.60
2018-11-06T21:08:46.687Z,26.83
2018-11-06T21:11:14.839Z,27.40
2018-11-06T21:13:43.059Z,21.20
2018-11-06T21:16:11.422Z,20.43
2018-11-06T21:18:39.674Z,24.10
2018-11-06T21:21:07.844Z,25.50
2018-11-06T21:23:35.990Z,23.20
2018-11-06T21:26:04.425Z,21.30
2018-11-06T21:28:32.463Z,23.90
2018-11-06T21:31:00.654Z,25.60
2018-11-06T21:33:28.834Z,22.77
2018-11-06T21:35:57.091Z,20.90
2018-11-06T21:38:25.267Z,21.77
2018-11-06T21:40:53.522Z,27.83
2018-11-06T21:43:21.791Z,21.27
2018-11-06T21:45:50.036Z,22.57
2018-11-06T21:48:18.210Z,24.90
2018-11-06T21:50:46.387Z,22.87
2018-11-06T21:53:14.648Z,25.40
2018-11-06T21:55:42.918Z,28.47
2018-11-06T21:58:11.209Z,25.50
2018-11-06T22:00:39.502Z,26.00
2018-11-06T22:03:07.728Z,31.43
2018-11-06T22:05:35.951Z,26.00
2018-11-06T22:08:04.334Z,26.23
2018-11-06T22:10:32.666Z,29.77
2018-11-06T22:13:00.974Z,28.67
2018-11-06T22:15:29.098Z,23.90
2018-11-06T22:17:57.271Z,24.37
2018-11-06T22:20:25.930Z,24.93
2018-11-06T22:22:54.644Z,24.07
2018-11-06T22:25:22.967Z,21.37
2018-11-06T22:27:51.155Z,27.43
2018-11-06T22:30:19.350Z,29.80
2018-11-06T22:32:47.795Z,27.87
2018-11-06T22:35:16.891Z,24.43
2018-11-06T22:37:45.138Z,26.17
2018-11-06T22:40:14.890Z,29.00
2018-11-06T22:42:43.106Z,34.80
2018-11-06T22:45:12.889Z,27.80
2018-11-06T22:47:41.207Z,28.90
2018-11-06T22:50:11.190Z,28.13
2018-11-06T22:52:40.075Z,26.77
2018-11-06T22:55:08.390Z,23.67
2018-11-06T22:57:36.674Z,29.70
2018-11-06T23:00:08.849Z,22.80
2018-11-06T23:02:37.090Z,20.20
2018-11-06T23:05:05.694Z,23.40
2018-11-06T23:07:39.270Z,21.20
2018-11-06T23:10:07.454Z,22.43
2018-11-06T23:12:35.646Z,24.87
2018-11-06T23:15:03.851Z,28.17
2018-11-06T23:17:32.036Z,27.90
2018-11-06T23:20:00.280Z,27.63
2018-11-06T23:22:28.530Z,28.57
2018-11-06T23:24:59.337Z,26.03
2018-11-06T23:27:27.530Z,29.13
2018-11-06T23:29:55.720Z,33.23
2018-11-06T23:32:23.921Z,28.20
2018-11-06T23:34:52.127Z,30.37
2018-11-06T23:37:20.294Z,26.60
2018-11-06T23:39:48.511Z,26.33
2018-11-06T23:42:16.692Z,30.90
2018-11-06T23:44:44.870Z,25.53
2018-11-06T23:47:13.038Z,23.77
2018-11-06T23:49:41.250Z,24.60
2018-11-06T23:52:09.390Z,21.90
2018-11-06T23:54:37.547Z,21.83
2018-11-06T23:57:05.803Z,23.80
2018-11-06T23:59:33.959Z,22.73
